sensor_id;sensor_type;location;lat;lon;timestamp;P1;durP1;ratioP1;P2;durP2;ratioP2
40945;SDS011;55635;50.264;11.918;2023-02-04T00:01:40;11.77;;;1.77;;
40945;SDS011;55635;50.264;11.918;2023-02-04T00:04:24;11.43;;;2.25;;
40945;SDS011;55635;50.264;11.918;2023-02-04T00:07:05;9.77;;;1.95;;
40945;SDS011;55635;50.264;11.918;2023-02-04T00:09:46;7.28;;;1.67;;
40945;SDS011;55635;50.264;11.918;2023-02-04T00:12:28;9.93;;;2.22;;
40945;SDS011;55635;50.264;11.918;2023-02-04T00:15:09;12.10;;;1.90;;
40945;SDS011;55635;50.264;11.918;2023-02-04T00:17:50;10.77;;;1.70;;
40945;SDS011;55635;50.264;11.918;2023-02-04T00:20:31;13.63;;;2.05;;
40945;SDS011;55635;50.264;11.918;2023-02-04T00:23:13;13.80;;;1.80;;
40945;SDS011;55635;50.264;11.918;2023-02-04T00:25:54;14.88;;;1.70;;
40945;SDS011;55635;50.264;11.918;2023-02-04T00:28:35;11.23;;;1.88;;
40945;SDS011;55635;50.264;11.918;2023-02-04T00:31:15;12.27;;;1.60;;
40945;SDS011;55635;50.264;11.918;2023-02-04T00:33:56;8.13;;;1.70;;
40945;SDS011;55635;50.264;11.918;2023-02-04T00:36:38;5.38;;;1.10;;
40945;SDS011;55635;50.264;11.918;2023-02-04T00:39:20;10.43;;;1.95;;
40945;SDS011;55635;50.264;11.918;2023-02-04T00:42:01;9.00;;;1.35;;
40945;SDS011;55635;50.264;11.918;2023-02-04T00:44:42;8.10;;;1.13;;
40945;SDS011;55635;50.264;11.918;2023-02-04T00:47:23;8.82;;;1.92;;
40945;SDS011;55635;50.264;11.918;2023-02-04T00:50:04;8.10;;;1.20;;
40945;SDS011;55635;50.264;11.918;2023-02-04T00:52:45;8.50;;;1.58;;
40945;SDS011;55635;50.264;11.918;2023-02-04T00:55:26;9.88;;;1.60;;
40945;SDS011;55635;50.264;11.918;2023-02-04T00:58:08;8.30;;;1.00;;
40945;SDS011;55635;50.264;11.918;2023-02-04T01:00:49;6.18;;;1.17;;
40945;SDS011;55635;50.264;11.918;2023-02-04T01:03:30;7.60;;;1.27;;
40945;SDS011;55635;50.264;11.918;2023-02-04T01:06:11;7.32;;;1.45;;
40945;SDS011;55635;50.264;11.918;2023-02-04T01:08:52;9.13;;;1.40;;
40945;SDS011;55635;50.264;11.918;2023-02-04T01:11:33;9.00;;;1.40;;
40945;SDS011;55635;50.264;11.918;2023-02-04T01:14:14;7.68;;;1.00;;
40945;SDS011;55635;50.264;11.918;2023-02-04T01:16:55;11.73;;;1.48;;
40945;SDS011;55635;50.264;11.918;2023-02-04T01:19:36;7.53;;;1.60;;
40945;SDS011;55635;50.264;11.918;2023-02-04T01:22:24;7.78;;;1.42;;
40945;SDS011;55635;50.264;11.918;2023-02-04T01:25:06;4.00;;;1.17;;
40945;SDS011;55635;50.264;11.918;2023-02-04T01:27:54;5.72;;;1.25;;
40945;SDS011;55635;50.264;11.918;2023-02-04T01:30:36;9.38;;;1.35;;
40945;SDS011;55635;50.264;11.918;2023-02-04T01:33:21;10.68;;;2.05;;
40945;SDS011;55635;50.264;11.918;2023-02-04T01:36:04;7.65;;;1.20;;
40945;SDS011;55635;50.264;11.918;2023-02-04T01:38:49;3.90;;;1.13;;
40945;SDS011;55635;50.264;11.918;2023-02-04T01:41:31;8.35;;;1.10;;
40945;SDS011;55635;50.264;11.918;2023-02-04T01:44:12;5.57;;;1.42;;
40945;SDS011;55635;50.264;11.918;2023-02-04T01:46:54;6.72;;;1.13;;
40945;SDS011;55635;50.264;11.918;2023-02-04T01:49:36;5.10;;;1.25;;
40945;SDS011;55635;50.264;11.918;2023-02-04T01:52:17;3.47;;;0.88;;
40945;SDS011;55635;50.264;11.918;2023-02-04T01:54:58;7.22;;;1.15;;
40945;SDS011;55635;50.264;11.918;2023-02-04T01:57:40;7.53;;;1.30;;
40945;SDS011;55635;50.264;11.918;2023-02-04T02:00:23;7.95;;;2.20;;
40945;SDS011;55635;50.264;11.918;2023-02-04T02:03:10;15.60;;;1.83;;
40945;SDS011;55635;50.264;11.918;2023-02-04T02:05:51;8.90;;;1.63;;
40945;SDS011;55635;50.264;11.918;2023-02-04T02:08:35;7.38;;;1.30;;
40945;SDS011;55635;50.264;11.918;2023-02-04T02:11:16;6.68;;;1.63;;
40945;SDS011;55635;50.264;11.918;2023-02-04T02:13:57;6.43;;;1.50;;
40945;SDS011;55635;50.264;11.918;2023-02-04T02:16:39;10.85;;;1.90;;
40945;SDS011;55635;50.264;11.918;2023-02-04T02:19:26;16.27;;;1.58;;
40945;SDS011;55635;50.264;11.918;2023-02-04T02:22:26;10.57;;;1.90;;
40945;SDS011;55635;50.264;11.918;2023-02-04T02:25:12;14.48;;;1.98;;
40945;SDS011;55635;50.264;11.918;2023-02-04T02:27:56;10.30;;;2.25;;
40945;SDS011;55635;50.264;11.918;2023-02-04T02:30:39;12.32;;;2.05;;
40945;SDS011;55635;50.264;11.918;2023-02-04T02:33:24;9.60;;;1.73;;
40945;SDS011;55635;50.264;11.918;2023-02-04T02:36:05;10.80;;;1.23;;
40945;SDS011;55635;50.264;11.918;2023-02-04T02:38:46;7.47;;;1.15;;
40945;SDS011;55635;50.264;11.918;2023-02-04T02:41:27;2.88;;;0.70;;
40945;SDS011;55635;50.264;11.918;2023-02-04T02:44:10;4.45;;;1.33;;
40945;SDS011;55635;50.264;11.918;2023-02-04T02:46:53;0.30;;;0.30;;
40945;SDS011;55635;50.264;11.918;2023-02-04T02:49:34;1.55;;;0.65;;
40945;SDS011;55635;50.264;11.918;2023-02-04T02:52:17;0.50;;;0.30;;
40945;SDS011;55635;50.264;11.918;2023-02-04T02:54:58;1.13;;;0.50;;
40945;SDS011;55635;50.264;11.918;2023-02-04T02:57:40;0.75;;;0.30;;
40945;SDS011;55635;50.264;11.918;2023-02-04T03:00:22;0.25;;;0.25;;
40945;SDS011;55635;50.264;11.918;2023-02-04T03:03:11;0.85;;;0.50;;
40945;SDS011;55635;50.264;11.918;2023-02-04T03:05:58;0.60;;;0.60;;
40945;SDS011;55635;50.264;11.918;2023-02-04T03:08:51;2.33;;;0.68;;
40945;SDS011;55635;50.264;11.918;2023-02-04T03:11:35;0.70;;;0.70;;
40945;SDS011;55635;50.264;11.918;2023-02-04T03:14:16;1.10;;;0.90;;
40945;SDS011;55635;50.264;11.918;2023-02-04T03:16:58;1.77;;;0.90;;
40945;SDS011;55635;50.264;11.918;2023-02-04T03:19:40;0.65;;;0.63;;
40945;SDS011;55635;50.264;11.918;2023-02-04T03:22:22;1.35;;;1.00;;
40945;SDS011;55635;50.264;11.918;2023-02-04T03:25:03;1.67;;;1.40;;
40945;SDS011;55635;50.264;11.918;2023-02-04T03:27:45;1.20;;;1.10;;
40945;SDS011;55635;50.264;11.918;2023-02-04T03:30:26;1.60;;;1.10;;
40945;SDS011;55635;50.264;11.918;2023-02-04T03:33:07;2.05;;;1.30;;
40945;SDS011;55635;50.264;11.918;2023-02-04T03:35:48;1.58;;;1.48;;
40945;SDS011;55635;50.264;11.918;2023-02-04T03:38:30;1.30;;;1.20;;
40945;SDS011;55635;50.264;11.918;2023-02-04T03:41:13;1.60;;;1.50;;
40945;SDS011;55635;50.264;11.918;2023-02-04T03:43:54;1.58;;;1.48;;
40945;SDS011;55635;50.264;11.918;2023-02-04T03:46:35;2.00;;;1.80;;
40945;SDS011;55635;50.264;11.918;2023-02-04T03:49:16;1.90;;;1.80;;
40945;SDS011;55635;50.264;11.918;2023-02-04T03:51:57;2.08;;;1.85;;
40945;SDS011;55635;50.264;11.918;2023-02-04T03:54:38;2.40;;;2.20;;
40945;SDS011;55635;50.264;11.918;2023-02-04T03:57:18;2.60;;;2.03;;
40945;SDS011;55635;50.264;11.918;2023-02-04T03:59:59;2.20;;;1.73;;
40945;SDS011;55635;50.264;11.918;2023-02-04T04:02:40;3.00;;;1.90;;
40945;SDS011;55635;50.264;11.918;2023-02-04T04:05:21;2.70;;;2.08;;
40945;SDS011;55635;50.264;11.918;2023-02-04T04:08:02;3.28;;;2.97;;
40945;SDS011;55635;50.264;11.918;2023-02-04T04:10:43;2.28;;;2.10;;
40945;SDS011;55635;50.264;11.918;2023-02-04T04:13:25;2.88;;;1.80;;
40945;SDS011;55635;50.264;11.918;2023-02-04T04:16:05;3.17;;;2.17;;
40945;SDS011;55635;50.264;11.918;2023-02-04T04:18:51;2.28;;;1.83;;
40945;SDS011;55635;50.264;11.918;2023-02-04T04:21:32;1.85;;;1.75;;
40945;SDS011;55635;50.264;11.918;2023-02-04T04:24:13;2.03;;;1.42;;
40945;SDS011;55635;50.264;11.918;2023-02-04T04:26:54;3.05;;;1.25;;
40945;SDS011;55635;50.264;11.918;2023-02-04T04:29:35;2.00;;;1.75;;
40945;SDS011;55635;50.264;11.918;2023-02-04T04:32:16;3.35;;;1.95;;
40945;SDS011;55635;50.264;11.918;2023-02-04T04:34:57;2.35;;;1.67;;
40945;SDS011;55635;50.264;11.918;2023-02-04T04:37:37;2.00;;;1.90;;
40945;SDS011;55635;50.264;11.918;2023-02-04T04:40:18;2.72;;;1.95;;
40945;SDS011;55635;50.264;11.918;2023-02-04T04:42:59;3.60;;;1.83;;
40945;SDS011;55635;50.264;11.918;2023-02-04T04:45:40;2.55;;;1.80;;
40945;SDS011;55635;50.264;11.918;2023-02-04T04:48:21;5.57;;;2.25;;
40945;SDS011;55635;50.264;11.918;2023-02-04T04:51:02;1.73;;;1.63;;
40945;SDS011;55635;50.264;11.918;2023-02-04T04:53:43;1.77;;;1.67;;
40945;SDS011;55635;50.264;11.918;2023-02-04T04:56:24;1.85;;;1.75;;
40945;SDS011;55635;50.264;11.918;2023-02-04T04:59:05;3.47;;;2.50;;
40945;SDS011;55635;50.264;11.918;2023-02-04T05:01:46;1.85;;;1.40;;
40945;SDS011;55635;50.264;11.918;2023-02-04T05:04:27;1.77;;;1.30;;
40945;SDS011;55635;50.264;11.918;2023-02-04T05:07:08;2.50;;;1.85;;
40945;SDS011;55635;50.264;11.918;2023-02-04T05:09:49;2.13;;;1.63;;
40945;SDS011;55635;50.264;11.918;2023-02-04T05:12:30;3.40;;;1.30;;
40945;SDS011;55635;50.264;11.918;2023-02-04T05:15:20;2.72;;;1.50;;
40945;SDS011;55635;50.264;11.918;2023-02-04T05:18:01;1.77;;;1.27;;
40945;SDS011;55635;50.264;11.918;2023-02-04T05:20:42;1.60;;;1.50;;
40945;SDS011;55635;50.264;11.918;2023-02-04T05:23:23;1.52;;;1.42;;
40945;SDS011;55635;50.264;11.918;2023-02-04T05:26:04;3.10;;;1.40;;
40945;SDS011;55635;50.264;11.918;2023-02-04T05:28:45;1.52;;;1.13;;
40945;SDS011;55635;50.264;11.918;2023-02-04T05:31:26;1.23;;;1.17;;
40945;SDS011;55635;50.264;11.918;2023-02-04T05:34:07;1.30;;;1.20;;
40945;SDS011;55635;50.264;11.918;2023-02-04T05:36:48;1.83;;;1.05;;
40945;SDS011;55635;50.264;11.918;2023-02-04T05:39:29;1.33;;;1.23;;
40945;SDS011;55635;50.264;11.918;2023-02-04T05:42:10;1.60;;;1.50;;
40945;SDS011;55635;50.264;11.918;2023-02-04T05:44:51;1.92;;;0.90;;
40945;SDS011;55635;50.264;11.918;2023-02-04T05:47:32;1.10;;;0.82;;
40945;SDS011;55635;50.264;11.918;2023-02-04T05:50:13;1.73;;;0.90;;
40945;SDS011;55635;50.264;11.918;2023-02-04T05:52:54;1.38;;;1.00;;
40945;SDS011;55635;50.264;11.918;2023-02-04T05:55:35;1.27;;;1.10;;
40945;SDS011;55635;50.264;11.918;2023-02-04T05:58:16;1.13;;;1.10;;
40945;SDS011;55635;50.264;11.918;2023-02-04T06:01:00;2.38;;;1.50;;
40945;SDS011;55635;50.264;11.918;2023-02-04T06:03:42;3.38;;;1.40;;
40945;SDS011;55635;50.264;11.918;2023-02-04T06:06:23;1.52;;;1.42;;
40945;SDS011;55635;50.264;11.918;2023-02-04T06:09:04;1.77;;;1.65;;
40945;SDS011;55635;50.264;11.918;2023-02-04T06:11:45;1.67;;;1.58;;
40945;SDS011;55635;50.264;11.918;2023-02-04T06:14:26;1.75;;;1.63;;
40945;SDS011;55635;50.264;11.918;2023-02-04T06:17:07;3.22;;;1.70;;
40945;SDS011;55635;50.264;11.918;2023-02-04T06:19:48;2.50;;;2.05;;
40945;SDS011;55635;50.264;11.918;2023-02-04T06:22:29;2.08;;;1.80;;
40945;SDS011;55635;50.264;11.918;2023-02-04T06:25:10;5.38;;;2.03;;
40945;SDS011;55635;50.264;11.918;2023-02-04T06:27:51;2.78;;;1.65;;
40945;SDS011;55635;50.264;11.918;2023-02-04T06:30:32;1.38;;;1.27;;
40945;SDS011;55635;50.264;11.918;2023-02-04T06:33:14;2.58;;;1.33;;
40945;SDS011;55635;50.264;11.918;2023-02-04T06:35:55;1.92;;;1.25;;
40945;SDS011;55635;50.264;11.918;2023-02-04T06:38:36;1.40;;;1.30;;
40945;SDS011;55635;50.264;11.918;2023-02-04T06:41:17;1.40;;;1.30;;
40945;SDS011;55635;50.264;11.918;2023-02-04T06:43:58;1.55;;;1.42;;
40945;SDS011;55635;50.264;11.918;2023-02-04T06:46:39;1.63;;;1.48;;
40945;SDS011;55635;50.264;11.918;2023-02-04T06:49:20;1.60;;;1.50;;
40945;SDS011;55635;50.264;11.918;2023-02-04T06:52:01;2.58;;;2.03;;
40945;SDS011;55635;50.264;11.918;2023-02-04T06:54:42;2.53;;;1.80;;
40945;SDS011;55635;50.264;11.918;2023-02-04T06:57:23;2.47;;;2.03;;
40945;SDS011;55635;50.264;11.918;2023-02-04T07:00:04;1.70;;;1.60;;
40945;SDS011;55635;50.264;11.918;2023-02-04T07:02:46;1.80;;;1.70;;
40945;SDS011;55635;50.264;11.918;2023-02-04T07:05:27;3.05;;;1.90;;
40945;SDS011;55635;50.264;11.918;2023-02-04T07:08:08;4.65;;;2.03;;
40945;SDS011;55635;50.264;11.918;2023-02-04T07:10:49;1.88;;;1.75;;
40945;SDS011;55635;50.264;11.918;2023-02-04T07:13:30;6.07;;;4.07;;
40945;SDS011;55635;50.264;11.918;2023-02-04T07:16:11;2.70;;;2.00;;
40945;SDS011;55635;50.264;11.918;2023-02-04T07:18:52;3.75;;;1.67;;
40945;SDS011;55635;50.264;11.918;2023-02-04T07:21:33;2.75;;;1.75;;
40945;SDS011;55635;50.264;11.918;2023-02-04T07:24:14;2.00;;;1.80;;
40945;SDS011;55635;50.264;11.918;2023-02-04T07:26:54;3.25;;;1.63;;
40945;SDS011;55635;50.264;11.918;2023-02-04T07:29:35;3.40;;;1.67;;
40945;SDS011;55635;50.264;11.918;2023-02-04T07:32:16;4.90;;;1.90;;
40945;SDS011;55635;50.264;11.918;2023-02-04T07:35:00;1.92;;;1.70;;
40945;SDS011;55635;50.264;11.918;2023-02-04T07:37:41;1.90;;;1.77;;
40945;SDS011;55635;50.264;11.918;2023-02-04T07:40:22;2.05;;;1.50;;
40945;SDS011;55635;50.264;11.918;2023-02-04T07:43:03;1.60;;;1.50;;
40945;SDS011;55635;50.264;11.918;2023-02-04T07:45:46;2.03;;;1.92;;
40945;SDS011;55635;50.264;11.918;2023-02-04T07:48:30;18.42;;;7.57;;
40945;SDS011;55635;50.264;11.918;2023-02-04T07:51:11;5.20;;;3.13;;
40945;SDS011;55635;50.264;11.918;2023-02-04T07:53:52;3.20;;;2.08;;
40945;SDS011;55635;50.264;11.918;2023-02-04T07:56:32;2.05;;;1.85;;
40945;SDS011;55635;50.264;11.918;2023-02-04T07:59:13;3.25;;;1.90;;
40945;SDS011;55635;50.264;11.918;2023-02-04T08:01:54;2.35;;;2.10;;
40945;SDS011;55635;50.264;11.918;2023-02-04T08:04:35;4.72;;;2.72;;
40945;SDS011;55635;50.264;11.918;2023-02-04T08:07:17;2.72;;;2.05;;
40945;SDS011;55635;50.264;11.918;2023-02-04T08:09:58;2.20;;;1.83;;
40945;SDS011;55635;50.264;11.918;2023-02-04T08:12:39;2.42;;;2.10;;
40945;SDS011;55635;50.264;11.918;2023-02-04T08:15:20;3.17;;;2.60;;
40945;SDS011;55635;50.264;11.918;2023-02-04T08:18:01;4.45;;;2.53;;
40945;SDS011;55635;50.264;11.918;2023-02-04T08:20:42;2.63;;;2.42;;
40945;SDS011;55635;50.264;11.918;2023-02-04T08:23:22;2.72;;;2.53;;
40945;SDS011;55635;50.264;11.918;2023-02-04T08:26:03;2.88;;;2.60;;
40945;SDS011;55635;50.264;11.918;2023-02-04T08:28:45;2.58;;;2.30;;
40945;SDS011;55635;50.264;11.918;2023-02-04T08:31:26;2.70;;;2.50;;
40945;SDS011;55635;50.264;11.918;2023-02-04T08:34:06;1.88;;;1.67;;
40945;SDS011;55635;50.264;11.918;2023-02-04T08:36:47;1.92;;;1.77;;
40945;SDS011;55635;50.264;11.918;2023-02-04T08:39:28;6.50;;;2.13;;
40945;SDS011;55635;50.264;11.918;2023-02-04T08:42:09;2.85;;;1.63;;
40945;SDS011;55635;50.264;11.918;2023-02-04T08:44:51;2.97;;;1.85;;
40945;SDS011;55635;50.264;11.918;2023-02-04T08:47:32;4.72;;;2.67;;
40945;SDS011;55635;50.264;11.918;2023-02-04T08:50:13;2.83;;;1.80;;
40945;SDS011;55635;50.264;11.918;2023-02-04T08:52:54;2.53;;;1.77;;
40945;SDS011;55635;50.264;11.918;2023-02-04T08:55:34;2.22;;;1.80;;
40945;SDS011;55635;50.264;11.918;2023-02-04T08:58:15;3.05;;;2.03;;
40945;SDS011;55635;50.264;11.918;2023-02-04T09:00:56;2.30;;;1.70;;
40945;SDS011;55635;50.264;11.918;2023-02-04T09:03:37;1.98;;;1.80;;
40945;SDS011;55635;50.264;11.918;2023-02-04T09:06:18;1.98;;;1.65;;
40945;SDS011;55635;50.264;11.918;2023-02-04T09:09:00;2.10;;;1.65;;
40945;SDS011;55635;50.264;11.918;2023-02-04T09:11:42;1.95;;;1.75;;
40945;SDS011;55635;50.264;11.918;2023-02-04T09:14:23;1.85;;;1.40;;
40945;SDS011;55635;50.264;11.918;2023-02-04T09:17:04;3.70;;;1.73;;
40945;SDS011;55635;50.264;11.918;2023-02-04T09:19:46;2.97;;;2.30;;
40945;SDS011;55635;50.264;11.918;2023-02-04T09:22:27;3.25;;;2.20;;
40945;SDS011;55635;50.264;11.918;2023-02-04T09:25:08;1.83;;;1.73;;
40945;SDS011;55635;50.264;11.918;2023-02-04T09:27:49;3.72;;;2.47;;
40945;SDS011;55635;50.264;11.918;2023-02-04T09:30:30;1.95;;;1.23;;
40945;SDS011;55635;50.264;11.918;2023-02-04T09:33:12;2.47;;;1.75;;
40945;SDS011;55635;50.264;11.918;2023-02-04T09:35:55;2.63;;;1.40;;
40945;SDS011;55635;50.264;11.918;2023-02-04T09:38:36;1.25;;;0.70;;
40945;SDS011;55635;50.264;11.918;2023-02-04T09:41:17;1.65;;;1.30;;
40945;SDS011;55635;50.264;11.918;2023-02-04T09:43:58;4.20;;;1.05;;
40945;SDS011;55635;50.264;11.918;2023-02-04T09:46:41;0.60;;;0.60;;
40945;SDS011;55635;50.264;11.918;2023-02-04T09:49:30;0.80;;;0.80;;
40945;SDS011;55635;50.264;11.918;2023-02-04T09:52:13;1.63;;;0.77;;
40945;SDS011;55635;50.264;11.918;2023-02-04T09:54:57;2.92;;;1.40;;
40945;SDS011;55635;50.264;11.918;2023-02-04T09:57:39;0.95;;;0.80;;
40945;SDS011;55635;50.264;11.918;2023-02-04T10:00:21;0.95;;;0.40;;
40945;SDS011;55635;50.264;11.918;2023-02-04T10:03:08;1.80;;;0.80;;
40945;SDS011;55635;50.264;11.918;2023-02-04T10:05:56;1.98;;;1.30;;
40945;SDS011;55635;50.264;11.918;2023-02-04T10:08:38;1.05;;;0.60;;
40945;SDS011;55635;50.264;11.918;2023-02-04T10:11:20;0.80;;;0.40;;
40945;SDS011;55635;50.264;11.918;2023-02-04T10:14:03;3.05;;;0.68;;
40945;SDS011;55635;50.264;11.918;2023-02-04T10:16:47;0.98;;;0.57;;
40945;SDS011;55635;50.264;11.918;2023-02-04T10:19:34;0.57;;;0.50;;
40945;SDS011;55635;50.264;11.918;2023-02-04T10:22:16;1.08;;;0.50;;
40945;SDS011;55635;50.264;11.918;2023-02-04T10:25:00;0.57;;;0.50;;
40945;SDS011;55635;50.264;11.918;2023-02-04T10:27:51;1.05;;;0.52;;
40945;SDS011;55635;50.264;11.918;2023-02-04T10:30:38;0.93;;;0.60;;
40945;SDS011;55635;50.264;11.918;2023-02-04T10:33:22;1.70;;;0.68;;
40945;SDS011;55635;50.264;11.918;2023-02-04T10:36:04;0.55;;;0.52;;
40945;SDS011;55635;50.264;11.918;2023-02-04T10:38:57;4.60;;;2.72;;
40945;SDS011;55635;50.264;11.918;2023-02-04T10:42:03;2.40;;;0.80;;
40945;SDS011;55635;50.264;11.918;2023-02-04T10:44:45;1.45;;;0.73;;
40945;SDS011;55635;50.264;11.918;2023-02-04T10:47:27;1.65;;;0.52;;
40945;SDS011;55635;50.264;11.918;2023-02-04T10:50:20;0.63;;;0.50;;
40945;SDS011;55635;50.264;11.918;2023-02-04T10:53:10;1.35;;;0.50;;
40945;SDS011;55635;50.264;11.918;2023-02-04T10:56:17;1.92;;;0.45;;
40945;SDS011;55635;50.264;11.918;2023-02-04T10:59:00;4.80;;;2.00;;
40945;SDS011;55635;50.264;11.918;2023-02-04T11:01:41;5.38;;;2.38;;
40945;SDS011;55635;50.264;11.918;2023-02-04T11:04:22;1.85;;;1.10;;
40945;SDS011;55635;50.264;11.918;2023-02-04T11:07:08;2.55;;;1.50;;
40945;SDS011;55635;50.264;11.918;2023-02-04T11:09:52;5.97;;;3.17;;
40945;SDS011;55635;50.264;11.918;2023-02-04T11:18:29;14.77;;;5.80;;
40945;SDS011;55635;50.264;11.918;2023-02-04T11:27:06;17.30;;;6.40;;
40945;SDS011;55635;50.264;11.918;2023-02-04T11:30:16;7.05;;;3.70;;
40945;SDS011;55635;50.264;11.918;2023-02-04T11:33:02;3.05;;;2.03;;
40945;SDS011;55635;50.264;11.918;2023-02-04T11:36:01;8.43;;;3.72;;
40945;SDS011;55635;50.264;11.918;2023-02-04T11:38:46;3.10;;;1.92;;
40945;SDS011;55635;50.264;11.918;2023-02-04T11:41:28;3.33;;;1.90;;
40945;SDS011;55635;50.264;11.918;2023-02-04T11:44:12;4.53;;;1.08;;
40945;SDS011;55635;50.264;11.918;2023-02-04T11:46:55;2.45;;;1.42;;
40945;SDS011;55635;50.264;11.918;2023-02-04T11:49:36;1.17;;;1.08;;
40945;SDS011;55635;50.264;11.918;2023-02-04T11:52:17;3.00;;;1.20;;
40945;SDS011;55635;50.264;11.918;2023-02-04T11:54:58;2.63;;;1.38;;
40945;SDS011;55635;50.264;11.918;2023-02-04T11:57:40;2.97;;;0.80;;
40945;SDS011;55635;50.264;11.918;2023-02-04T12:03:19;3.22;;;2.03;;
40945;SDS011;55635;50.264;11.918;2023-02-04T12:06:23;2.40;;;1.13;;
40945;SDS011;55635;50.264;11.918;2023-02-04T12:12:05;1.02;;;0.82;;
40945;SDS011;55635;50.264;11.918;2023-02-04T12:14:54;1.77;;;1.40;;
40945;SDS011;55635;50.264;11.918;2023-02-04T12:17:37;1.38;;;0.80;;
40945;SDS011;55635;50.264;11.918;2023-02-04T12:20:18;1.50;;;1.30;;
40945;SDS011;55635;50.264;11.918;2023-02-04T12:22:59;6.10;;;2.58;;
40945;SDS011;55635;50.264;11.918;2023-02-04T12:25:40;3.85;;;1.42;;
40945;SDS011;55635;50.264;11.918;2023-02-04T12:28:21;3.50;;;1.52;;
40945;SDS011;55635;50.264;11.918;2023-02-04T12:31:03;1.15;;;0.95;;
40945;SDS011;55635;50.264;11.918;2023-02-04T12:33:44;3.47;;;1.35;;
40945;SDS011;55635;50.264;11.918;2023-02-04T12:36:25;1.17;;;0.63;;
40945;SDS011;55635;50.264;11.918;2023-02-04T12:39:08;3.90;;;0.73;;
40945;SDS011;55635;50.264;11.918;2023-02-04T12:41:49;4.13;;;1.08;;
40945;SDS011;55635;50.264;11.918;2023-02-04T12:44:30;2.28;;;1.10;;
40945;SDS011;55635;50.264;11.918;2023-02-04T12:47:11;0.88;;;0.68;;
40945;SDS011;55635;50.264;11.918;2023-02-04T12:49:52;0.85;;;0.60;;
40945;SDS011;55635;50.264;11.918;2023-02-04T12:52:33;1.17;;;0.57;;
40945;SDS011;55635;50.264;11.918;2023-02-04T12:55:14;0.70;;;0.45;;
40945;SDS011;55635;50.264;11.918;2023-02-04T12:57:55;0.73;;;0.63;;
40945;SDS011;55635;50.264;11.918;2023-02-04T13:00:36;1.25;;;0.57;;
40945;SDS011;55635;50.264;11.918;2023-02-04T13:03:17;0.60;;;0.60;;
40945;SDS011;55635;50.264;11.918;2023-02-04T13:05:58;1.35;;;0.73;;
40945;SDS011;55635;50.264;11.918;2023-02-04T13:08:39;1.80;;;0.82;;
40945;SDS011;55635;50.264;11.918;2023-02-04T13:11:20;1.80;;;0.68;;
40945;SDS011;55635;50.264;11.918;2023-02-04T13:14:01;0.55;;;0.52;;
40945;SDS011;55635;50.264;11.918;2023-02-04T13:16:42;0.50;;;0.50;;
40945;SDS011;55635;50.264;11.918;2023-02-04T13:19:23;1.92;;;0.50;;
40945;SDS011;55635;50.264;11.918;2023-02-04T13:22:04;1.27;;;0.50;;
40945;SDS011;55635;50.264;11.918;2023-02-04T13:24:45;3.13;;;0.50;;
40945;SDS011;55635;50.264;11.918;2023-02-04T13:27:26;1.25;;;0.80;;
40945;SDS011;55635;50.264;11.918;2023-02-04T13:30:07;1.95;;;0.70;;
40945;SDS011;55635;50.264;11.918;2023-02-04T13:32:50;2.15;;;1.48;;
40945;SDS011;55635;50.264;11.918;2023-02-04T13:35:31;1.00;;;0.60;;
40945;SDS011;55635;50.264;11.918;2023-02-04T13:38:12;2.65;;;1.23;;
40945;SDS011;55635;50.264;11.918;2023-02-04T13:40:53;0.65;;;0.50;;
40945;SDS011;55635;50.264;11.918;2023-02-04T13:43:34;14.10;;;9.30;;
40945;SDS011;55635;50.264;11.918;2023-02-04T13:46:18;0.95;;;0.70;;
40945;SDS011;55635;50.264;11.918;2023-02-04T13:49:00;1.85;;;0.52;;
40945;SDS011;55635;50.264;11.918;2023-02-04T13:51:41;1.40;;;0.60;;
40945;SDS011;55635;50.264;11.918;2023-02-04T13:54:22;2.35;;;0.70;;
40945;SDS011;55635;50.264;11.918;2023-02-04T13:57:02;1.77;;;0.80;;
40945;SDS011;55635;50.264;11.918;2023-02-04T13:59:44;1.83;;;0.60;;
40945;SDS011;55635;50.264;11.918;2023-02-04T14:02:25;1.60;;;0.88;;
40945;SDS011;55635;50.264;11.918;2023-02-04T14:05:06;2.58;;;0.75;;
40945;SDS011;55635;50.264;11.918;2023-02-04T14:07:47;2.47;;;1.13;;
40945;SDS011;55635;50.264;11.918;2023-02-04T14:10:28;1.75;;;0.73;;
40945;SDS011;55635;50.264;11.918;2023-02-04T14:13:09;0.60;;;0.60;;
40945;SDS011;55635;50.264;11.918;2023-02-04T14:15:49;1.73;;;0.50;;
40945;SDS011;55635;50.264;11.918;2023-02-04T14:18:30;0.93;;;0.85;;
40945;SDS011;55635;50.264;11.918;2023-02-04T14:24:42;1.17;;;0.70;;
40945;SDS011;55635;50.264;11.918;2023-02-04T14:27:23;0.77;;;0.68;;
40945;SDS011;55635;50.264;11.918;2023-02-04T14:30:05;1.92;;;1.08;;
40945;SDS011;55635;50.264;11.918;2023-02-04T14:32:46;3.08;;;0.82;;
40945;SDS011;55635;50.264;11.918;2023-02-04T14:35:27;1.92;;;0.65;;
40945;SDS011;55635;50.264;11.918;2023-02-04T14:38:08;3.03;;;1.00;;
40945;SDS011;55635;50.264;11.918;2023-02-04T14:40:50;3.03;;;1.20;;
40945;SDS011;55635;50.264;11.918;2023-02-04T14:43:31;2.05;;;0.90;;
40945;SDS011;55635;50.264;11.918;2023-02-04T14:46:16;1.73;;;0.90;;
40945;SDS011;55635;50.264;11.918;2023-02-04T14:48:57;1.35;;;1.00;;
40945;SDS011;55635;50.264;11.918;2023-02-04T14:51:38;1.05;;;0.90;;
40945;SDS011;55635;50.264;11.918;2023-02-04T14:54:18;1.45;;;0.90;;
40945;SDS011;55635;50.264;11.918;2023-02-04T14:56:59;7.05;;;2.60;;
40945;SDS011;55635;50.264;11.918;2023-02-04T14:59:40;5.15;;;2.90;;
40945;SDS011;55635;50.264;11.918;2023-02-04T15:02:22;2.17;;;1.23;;
40945;SDS011;55635;50.264;11.918;2023-02-04T15:05:03;0.93;;;0.90;;
40945;SDS011;55635;50.264;11.918;2023-02-04T15:07:47;2.42;;;1.50;;
40945;SDS011;55635;50.264;11.918;2023-02-04T15:10:29;1.75;;;1.17;;
40945;SDS011;55635;50.264;11.918;2023-02-04T15:13:10;2.88;;;1.48;;
40945;SDS011;55635;50.264;11.918;2023-02-04T15:15:51;3.58;;;1.40;;
40945;SDS011;55635;50.264;11.918;2023-02-04T15:18:31;2.47;;;1.40;;
40945;SDS011;55635;50.264;11.918;2023-02-04T15:21:12;2.15;;;1.35;;
40945;SDS011;55635;50.264;11.918;2023-02-04T15:23:53;1.48;;;1.38;;
40945;SDS011;55635;50.264;11.918;2023-02-04T15:26:34;4.20;;;1.98;;
40945;SDS011;55635;50.264;11.918;2023-02-04T15:29:15;4.63;;;2.80;;
40945;SDS011;55635;50.264;11.918;2023-02-04T15:31:56;5.03;;;2.10;;
40945;SDS011;55635;50.264;11.918;2023-02-04T15:34:37;2.05;;;1.83;;
40945;SDS011;55635;50.264;11.918;2023-02-04T15:37:19;2.97;;;1.67;;
40945;SDS011;55635;50.264;11.918;2023-02-04T15:40:00;1.38;;;0.90;;
40945;SDS011;55635;50.264;11.918;2023-02-04T15:42:41;1.80;;;1.05;;
40945;SDS011;55635;50.264;11.918;2023-02-04T15:45:22;1.67;;;1.30;;
40945;SDS011;55635;50.264;11.918;2023-02-04T15:48:03;2.13;;;1.38;;
40945;SDS011;55635;50.264;11.918;2023-02-04T15:50:44;2.95;;;1.30;;
40945;SDS011;55635;50.264;11.918;2023-02-04T15:53:25;1.60;;;1.50;;
40945;SDS011;55635;50.264;11.918;2023-02-04T15:56:06;2.85;;;1.60;;
40945;SDS011;55635;50.264;11.918;2023-02-04T15:58:47;1.30;;;1.20;;
40945;SDS011;55635;50.264;11.918;2023-02-04T16:01:28;1.52;;;1.20;;
40945;SDS011;55635;50.264;11.918;2023-02-04T16:04:09;1.80;;;1.13;;
40945;SDS011;55635;50.264;11.918;2023-02-04T16:06:50;1.00;;;1.00;;
40945;SDS011;55635;50.264;11.918;2023-02-04T16:09:31;1.17;;;1.08;;
40945;SDS011;55635;50.264;11.918;2023-02-04T16:12:12;1.30;;;1.20;;
40945;SDS011;55635;50.264;11.918;2023-02-04T16:14:53;1.67;;;1.10;;
40945;SDS011;55635;50.264;11.918;2023-02-04T16:17:34;4.07;;;1.70;;
40945;SDS011;55635;50.264;11.918;2023-02-04T16:20:15;18.85;;;7.35;;
40945;SDS011;55635;50.264;11.918;2023-02-04T16:22:57;10.05;;;4.45;;